createdAt,value
2018-01-27T00:00:18.301Z,24.13
2018-01-27T00:02:46.460Z,22.80
2018-01-27T00:05:14.541Z,23.53
2018-01-27T00:07:42.401Z,21.47
2018-01-27T00:10:10.360Z,26.03
2018-01-27T00:12:38.782Z,28.00
2018-01-27T00:15:06.660Z,28.70
2018-01-27T00:17:35.120Z,27.30
2018-01-27T00:20:03.100Z,28.83
2018-01-27T00:25:31.640Z,28.53
2018-01-27T00:27:59.422Z,25.77
2018-01-27T00:30:27.340Z,23.53
2018-01-27T00:32:55.263Z,22.73
2018-01-27T00:35:23.221Z,22.93
2018-01-27T00:37:51.041Z,23.30
2018-01-27T00:40:18.961Z,24.73
2018-01-27T00:42:47.040Z,24.93
2018-01-27T00:45:14.881Z,23.70
2018-01-27T00:47:42.780Z,24.80
2018-01-27T00:50:10.600Z,27.67
2018-01-27T00:52:38.360Z,27.97
2018-01-27T00:55:06.580Z,26.13
2018-01-27T00:57:34.501Z,28.57
2018-01-27T01:00:02.300Z,28.23
2018-01-27T01:02:30.320Z,29.50
2018-01-27T01:04:58.040Z,27.23
2018-01-27T01:07:25.760Z,29.70
2018-01-27T01:09:53.980Z,26.93
2018-01-27T01:12:21.820Z,27.03
2018-01-27T01:14:50.160Z,26.70
2018-01-27T01:17:18.520Z,26.47
2018-01-27T01:19:46.500Z,29.07
2018-01-27T01:22:14.682Z,26.13
2018-01-27T01:24:42.521Z,27.97
2018-01-27T01:27:10.422Z,27.63
2018-01-27T01:29:38.624Z,29.27
2018-01-27T01:32:06.662Z,30.10
2018-01-27T01:34:35.180Z,30.73
2018-01-27T01:37:03.100Z,31.20
2018-01-27T01:39:31.000Z,32.97
2018-01-27T01:41:58.883Z,30.87
2018-01-27T01:44:27.660Z,34.30
2018-01-27T01:46:55.880Z,31.93
2018-01-27T01:49:24.941Z,35.77
2018-01-27T01:51:52.800Z,31.83
2018-01-27T01:54:20.740Z,32.50
2018-01-27T01:56:48.680Z,34.90
2018-01-27T01:59:16.880Z,35.00
2018-01-27T02:01:45.024Z,36.97
2018-01-27T02:04:12.902Z,39.20
2018-01-27T02:06:40.744Z,34.33
2018-01-27T02:09:08.622Z,34.93
2018-01-27T02:11:36.522Z,36.97
2018-01-27T02:14:04.321Z,39.43
2018-01-27T02:16:32.338Z,33.97
2018-01-27T02:19:00.123Z,34.60
2018-01-27T02:21:28.701Z,34.07
2018-01-27T02:23:56.723Z,34.13
2018-01-27T02:26:25.349Z,30.87
2018-01-27T02:28:53.381Z,34.27
2018-01-27T02:31:21.322Z,29.47
2018-01-27T02:33:49.141Z,31.57
2018-01-27T02:36:17.001Z,32.50
2018-01-27T02:38:44.962Z,33.27
2018-01-27T02:41:12.901Z,33.87
2018-01-27T02:43:40.781Z,37.77
2018-01-27T02:46:09.001Z,38.57
2018-01-27T02:48:36.801Z,35.17
2018-01-27T02:51:04.745Z,37.93
2018-01-27T02:53:33.901Z,40.03
2018-01-27T02:56:01.841Z,38.20
2018-01-27T02:58:30.721Z,42.27
2018-01-27T03:00:58.801Z,46.17
2018-01-27T03:03:27.002Z,38.70
2018-01-27T03:05:54.921Z,39.37
2018-01-27T03:08:23.100Z,39.03
2018-01-27T03:10:50.941Z,33.43
2018-01-27T03:13:18.960Z,34.47
2018-01-27T03:15:47.562Z,28.03
2018-01-27T03:18:15.400Z,27.97
2018-01-27T03:20:43.581Z,26.33
2018-01-27T03:23:11.781Z,30.57
2018-01-27T03:25:39.680Z,30.60
2018-01-27T03:28:08.400Z,25.93
2018-01-27T03:30:36.300Z,27.03
2018-01-27T03:33:04.160Z,26.10
2018-01-27T03:35:32.861Z,22.37
2018-01-27T03:38:01.620Z,24.47
2018-01-27T03:40:29.488Z,20.67
2018-01-27T03:42:57.340Z,18.97
2018-01-27T03:45:25.181Z,24.80
2018-01-27T03:47:52.982Z,28.60
2018-01-27T03:50:20.780Z,27.27
2018-01-27T03:52:49.020Z,24.27
2018-01-27T03:55:17.602Z,22.73
2018-01-27T03:57:45.660Z,25.83
2018-01-27T04:00:17.058Z,23.87
2018-01-27T04:02:44.962Z,24.57
2018-01-27T04:05:14.001Z,24.60
2018-01-27T04:07:42.921Z,20.40
2018-01-27T04:10:10.982Z,22.70
2018-01-27T04:12:38.902Z,19.17
2018-01-27T04:15:06.802Z,23.70
2018-01-27T04:17:34.541Z,35.77
2018-01-27T04:20:02.622Z,31.33
2018-01-27T04:22:30.701Z,28.77
2018-01-27T04:24:58.881Z,22.30
2018-01-27T04:27:26.861Z,29.53
2018-01-27T04:29:54.721Z,29.07
2018-01-27T04:32:23.042Z,24.47
2018-01-27T04:34:51.042Z,24.87
2018-01-27T04:37:19.061Z,24.97
2018-01-27T04:39:47.041Z,26.80
2018-01-27T04:42:14.901Z,23.77
2018-01-27T04:44:42.941Z,21.00
2018-01-27T04:47:10.781Z,25.53
2018-01-27T04:49:38.664Z,19.03
2018-01-27T04:52:06.662Z,25.07
2018-01-27T04:54:34.461Z,22.37
2018-01-27T04:57:02.283Z,23.93
2018-01-27T04:59:30.301Z,22.30
2018-01-27T05:01:58.261Z,19.50
2018-01-27T05:04:26.941Z,21.27
2018-01-27T05:06:54.801Z,23.63
2018-01-27T05:09:22.581Z,22.60
2018-01-27T05:11:50.561Z,20.00
2018-01-27T05:14:18.361Z,22.47
2018-01-27T05:16:46.201Z,18.83
2018-01-27T05:19:14.761Z,20.57
2018-01-27T05:21:43.041Z,21.33
2018-01-27T05:24:11.021Z,21.67
2018-01-27T05:26:38.841Z,17.03
2018-01-27T05:29:06.666Z,20.73
2018-01-27T05:31:34.821Z,23.63
2018-01-27T05:34:02.662Z,25.07
2018-01-27T05:36:30.501Z,25.20
2018-01-27T05:38:58.381Z,25.03
2018-01-27T05:41:26.223Z,21.90
2018-01-27T05:43:54.241Z,27.47
2018-01-27T05:48:54.060Z,22.63
2018-01-27T05:51:21.842Z,18.23
2018-01-27T05:53:49.804Z,34.57
2018-01-27T05:56:17.621Z,33.10
2018-01-27T05:58:45.461Z,23.00
2018-01-27T06:01:13.441Z,30.23
2018-01-27T06:03:41.359Z,21.90
2018-01-27T06:06:09.279Z,22.40
2018-01-27T06:08:37.199Z,19.50
2018-01-27T06:11:05.079Z,20.67
2018-01-27T06:13:33.141Z,21.90
2018-01-27T06:16:01.019Z,19.97
2018-01-27T06:18:28.978Z,19.73
2018-01-27T06:20:56.904Z,27.23
2018-01-27T06:23:24.859Z,36.07
2018-01-27T06:25:52.941Z,50.43
2018-01-27T06:28:20.981Z,30.60
2018-01-27T06:30:48.818Z,39.80
2018-01-27T06:33:17.222Z,32.00
2018-01-27T06:35:45.178Z,33.93
2018-01-27T06:38:13.180Z,23.90
2018-01-27T06:40:41.127Z,20.73
2018-01-27T06:43:08.958Z,25.70
2018-01-27T06:45:36.778Z,42.27
2018-01-27T06:48:04.859Z,37.67
2018-01-27T06:50:32.698Z,34.60
2018-01-27T06:53:00.558Z,27.80
2018-01-27T06:55:28.478Z,26.37
2018-01-27T06:57:56.458Z,25.53
2018-01-27T07:00:24.380Z,27.53
2018-01-27T07:02:52.320Z,24.10
2018-01-27T07:05:20.338Z,22.17
2018-01-27T07:07:48.538Z,20.87
2018-01-27T07:10:16.518Z,22.83
2018-01-27T07:12:44.298Z,26.70
2018-01-27T07:15:12.120Z,25.90
2018-01-27T07:17:40.118Z,22.33
2018-01-27T07:20:08.161Z,22.67
2018-01-27T07:22:36.439Z,21.73
2018-01-27T07:25:04.158Z,22.33
2018-01-27T07:27:31.998Z,21.77
2018-01-27T07:29:59.858Z,22.50
2018-01-27T07:32:27.732Z,21.17
2018-01-27T07:34:55.960Z,21.93
2018-01-27T07:37:23.958Z,20.80
2018-01-27T07:39:51.859Z,19.53
2018-01-27T07:42:19.699Z,22.23
2018-01-27T07:44:48.060Z,19.43
2018-01-27T07:47:15.918Z,22.27
2018-01-27T07:49:43.847Z,20.70
2018-01-27T07:52:11.978Z,21.63
2018-01-27T07:54:40.798Z,24.13
2018-01-27T07:57:08.738Z,23.13
2018-01-27T07:59:36.508Z,24.07
2018-01-27T08:02:04.338Z,23.27
2018-01-27T08:04:32.179Z,23.40
2018-01-27T08:07:00.339Z,20.93
2018-01-27T08:09:28.160Z,23.53
2018-01-27T08:11:55.949Z,22.17
2018-01-27T08:14:23.944Z,20.90
2018-01-27T08:16:51.720Z,22.53
2018-01-27T08:19:19.620Z,22.00
2018-01-27T08:21:47.440Z,23.03
2018-01-27T08:24:15.243Z,23.67
2018-01-27T08:26:43.112Z,23.53
2018-01-27T08:31:42.823Z,22.43
2018-01-27T08:34:10.558Z,23.07
2018-01-27T08:36:38.588Z,25.83
2018-01-27T08:39:06.741Z,27.63
2018-01-27T08:41:37.241Z,24.10
2018-01-27T08:44:06.012Z,25.27
2018-01-27T08:46:33.647Z,27.53
2018-01-27T08:49:01.285Z,26.87
2018-01-27T08:51:33.880Z,26.20
2018-01-27T08:54:02.103Z,23.83
2018-01-27T08:56:29.804Z,23.33
2018-01-27T08:58:59.104Z,21.73
2018-01-27T09:01:27.351Z,22.87
2018-01-27T09:03:55.199Z,21.60
2018-01-27T09:06:22.895Z,20.63
2018-01-27T09:08:50.717Z,19.97
2018-01-27T09:11:18.403Z,19.70
2018-01-27T09:13:46.194Z,21.63
2018-01-27T09:16:14.697Z,22.87
2018-01-27T09:18:42.381Z,22.23
2018-01-27T09:21:11.479Z,23.37
2018-01-27T09:23:40.578Z,22.60
2018-01-27T09:26:09.131Z,22.10
2018-01-27T09:28:37.705Z,23.63
2018-01-27T09:31:06.375Z,23.27
2018-01-27T09:33:35.065Z,22.57
2018-01-27T09:36:02.817Z,23.40
2018-01-27T09:38:30.528Z,22.17
2018-01-27T09:40:58.209Z,20.60
2018-01-27T09:43:26.305Z,20.70
2018-01-27T09:45:54.034Z,20.27
2018-01-27T09:48:21.803Z,20.20
2018-01-27T09:50:50.276Z,20.37
2018-01-27T09:53:18.947Z,22.17
2018-01-27T09:55:46.585Z,21.90
2018-01-27T09:58:14.271Z,21.60
2018-01-27T10:00:42.100Z,20.83
2018-01-27T10:03:09.859Z,20.53
2018-01-27T10:05:37.620Z,21.07
2018-01-27T10:08:05.438Z,21.70
2018-01-27T10:10:33.161Z,20.80
2018-01-27T10:13:00.899Z,20.03
2018-01-27T10:15:28.720Z,21.20
2018-01-27T10:17:56.619Z,21.63
2018-01-27T10:20:24.707Z,20.23
2018-01-27T10:22:52.767Z,18.33
2018-01-27T10:25:22.763Z,18.00
2018-01-27T10:27:51.020Z,19.03
2018-01-27T10:30:18.959Z,20.63
2018-01-27T10:32:47.336Z,20.30
2018-01-27T10:35:15.499Z,21.30
2018-01-27T10:37:43.660Z,20.90
2018-01-27T10:40:11.601Z,21.83
2018-01-27T10:42:40.418Z,21.23
2018-01-27T10:45:08.540Z,22.70
2018-01-27T10:47:36.380Z,22.27
2018-01-27T10:50:04.226Z,22.13
2018-01-27T10:52:32.278Z,20.80
2018-01-27T10:55:00.360Z,20.57
2018-01-27T10:57:29.026Z,21.03
2018-01-27T10:59:56.883Z,20.97
2018-01-27T11:02:25.021Z,22.00
2018-01-27T11:04:52.900Z,19.67
2018-01-27T11:07:20.709Z,21.27
2018-01-27T11:09:48.562Z,20.20
2018-01-27T11:12:16.323Z,20.23
2018-01-27T11:14:44.482Z,20.60
2018-01-27T11:17:12.242Z,20.53
2018-01-27T11:19:40.156Z,20.33
2018-01-27T11:22:08.062Z,19.83
2018-01-27T11:24:35.822Z,21.43
2018-01-27T11:27:03.579Z,20.37
2018-01-27T11:29:32.249Z,22.53
2018-01-27T11:32:00.045Z,20.83
2018-01-27T11:34:27.881Z,20.77
2018-01-27T11:36:55.682Z,21.73
2018-01-27T11:39:23.482Z,20.57
2018-01-27T11:41:51.262Z,21.13
2018-01-27T11:44:20.542Z,22.43
2018-01-27T11:46:48.281Z,21.87
2018-01-27T11:49:16.121Z,20.60
2018-01-27T11:51:43.944Z,21.67
2018-01-27T11:54:11.790Z,20.67
2018-01-27T11:56:39.742Z,20.30
2018-01-27T11:59:07.663Z,21.53
2018-01-27T12:01:35.460Z,22.23
2018-01-27T12:04:03.682Z,20.93
2018-01-27T12:06:31.587Z,21.53
2018-01-27T12:09:00.167Z,20.17
2018-01-27T12:11:28.368Z,21.27
2018-01-27T12:13:56.228Z,22.37
2018-01-27T12:16:24.309Z,20.13
2018-01-27T12:18:52.095Z,20.93
2018-01-27T12:21:19.947Z,21.50
2018-01-27T12:23:47.826Z,20.83
2018-01-27T12:26:15.747Z,20.13
2018-01-27T12:28:43.666Z,20.90
2018-01-27T12:31:11.556Z,21.07
2018-01-27T12:33:39.467Z,19.60
2018-01-27T12:36:07.353Z,22.07
2018-01-27T12:38:35.204Z,18.67
2018-01-27T12:41:03.824Z,20.60
2018-01-27T12:43:31.824Z,22.90
2018-01-27T12:45:59.763Z,19.70
2018-01-27T12:48:27.565Z,20.63
2018-01-27T12:50:55.445Z,21.77
2018-01-27T12:53:23.302Z,24.03
2018-01-27T12:55:51.181Z,22.20
2018-01-27T12:58:19.019Z,23.67
2018-01-27T13:00:47.123Z,23.33
2018-01-27T13:03:14.959Z,21.83
2018-01-27T13:05:42.922Z,22.00
2018-01-27T13:08:10.725Z,22.33
2018-01-27T13:10:38.586Z,21.47
2018-01-27T13:13:06.527Z,22.57
2018-01-27T13:15:34.482Z,21.30
2018-01-27T13:18:02.421Z,23.87
2018-01-27T13:20:30.282Z,21.07
2018-01-27T13:22:58.079Z,21.23
2018-01-27T13:25:26.726Z,25.77
2018-01-27T13:27:54.522Z,19.77
2018-01-27T13:30:22.308Z,21.47
